This is the latest recevied weather packets stored in our database for station/object DC1NF-6. If no packets are shown the sender has not sent any weather packets the latest 10 day(s).
| Time | Temp. | Humidity | Pressure | Rain* | Wind** | Luminosity | Snow |
|---|---|---|---|---|---|---|---|
| 1777852542 | 15.56° C | 64% | 1014.4 hPa | 0 mm | - | - | - |
| 1777851938 | 16.11° C | 62% | 1014.3 hPa | 0 mm | - | - | - |
| 1777851334 | 15.56° C | 63% | 1014.2 hPa | 0 mm | - | - | - |
| 1777850730 | 15.56° C | 65% | 1014.3 hPa | 0 mm | - | - | - |
| 1777850126 | 15.56° C | 64% | 1014.5 hPa | 0 mm | - | - | - |
| 1777849523 | 15° C | 69% | 1014.2 hPa | 0 mm | - | - | - |
| 1777848919 | 15.56° C | 69% | 1013.6 hPa | 0 mm | - | - | - |
| 1777848315 | 16.11° C | 65% | 1013.8 hPa | 0 mm | - | - | - |
| 1777847772 | 15.56° C | 64% | 1014 hPa | 0 mm | - | - | - |
| 1777847168 | 15° C | 68% | 1013.9 hPa | 0 mm | - | - | - |
| 1777846565 | 15° C | 70% | 1013.8 hPa | 0 mm | - | - | - |
| 1777845961 | 15° C | 70% | 1013.8 hPa | 0 mm | - | - | - |
| 1777845357 | 15° C | 70% | 1013.7 hPa | 0 mm | - | - | - |
| 1777844753 | 15.56° C | 68% | 1013.7 hPa | 0 mm | - | - | - |
| 1777844149 | 16.11° C | 65% | 1013.5 hPa | 0 mm | - | - | - |
| 1777843545 | 15° C | 65% | 1013.4 hPa | 0 mm | - | - | - |
| 1777842941 | 15° C | 71% | 1013.4 hPa | 0 mm | - | - | - |
| 1777842337 | 15.56° C | 70% | 1013.3 hPa | 0 mm | - | - | - |
| 1777841734 | 15.56° C | 67% | 1013.1 hPa | 0 mm | - | - | - |
| 1777841130 | 15.56° C | 65% | 1013 hPa | 0 mm | - | - | - |
| 1777840526 | 16.11° C | 64% | 1012.8 hPa | 0 mm | - | - | - |
| 1777839923 | 16.11° C | 63% | 1012.8 hPa | 0 mm | - | - | - |
| 1777839319 | 16.67° C | 59% | 1012.8 hPa | 0 mm | - | - | - |
| 1777838715 | 16.67° C | 59% | 1012.7 hPa | 0 mm | - | - | - |
| 1777838172 | 16.67° C | 58% | 1012.7 hPa | 0 mm | - | - | - |
* Rain latest hour (hover to see other rain measurements)
** Current wind speed in m/s (hover to see current wind gust speed)